createdAt,value
2018-06-18T00:00:34.438Z,6.67
2018-06-18T00:03:04.497Z,6.37
2018-06-18T00:05:34.782Z,6.63
2018-06-18T00:08:05.698Z,6.47
2018-06-18T00:10:36.222Z,6.80
2018-06-18T00:13:06.569Z,5.77
2018-06-18T00:15:37.146Z,6.40
2018-06-18T00:18:07.498Z,6.90
2018-06-18T00:20:37.576Z,6.57
2018-06-18T00:23:08.278Z,7.00
2018-06-18T00:25:38.565Z,6.97
2018-06-18T00:28:08.938Z,6.73
2018-06-18T00:30:39.496Z,6.90
2018-06-18T00:33:10.254Z,7.10
2018-06-18T00:35:40.778Z,7.03
2018-06-18T00:38:11.410Z,7.00
2018-06-18T00:40:42.099Z,6.60
2018-06-18T00:43:12.518Z,6.53
2018-06-18T00:45:43.111Z,6.30
2018-06-18T00:48:13.929Z,6.67
2018-06-18T00:50:44.422Z,6.60
2018-06-18T00:53:14.801Z,6.90
2018-06-18T00:55:57.368Z,6.27
2018-06-18T00:58:27.962Z,6.93
2018-06-18T01:00:58.421Z,6.70
2018-06-18T01:03:29.042Z,6.83
2018-06-18T01:05:59.858Z,6.83
2018-06-18T01:08:30.465Z,7.77
2018-06-18T01:11:01.285Z,7.10
2018-06-18T01:13:31.786Z,6.30
2018-06-18T01:16:02.246Z,7.13
2018-06-18T01:18:34.064Z,7.30
2018-06-18T01:21:04.533Z,6.20
2018-06-18T01:23:54.115Z,6.30
2018-06-18T01:26:24.289Z,7.20
2018-06-18T01:28:54.715Z,7.13
2018-06-18T01:31:26.040Z,6.40
2018-06-18T01:33:59.534Z,7.23
2018-06-18T01:36:29.974Z,6.73
2018-06-18T01:39:00.315Z,7.03
2018-06-18T01:41:30.678Z,6.37
2018-06-18T01:44:01.139Z,7.23
2018-06-18T01:46:31.638Z,7.17
2018-06-18T01:49:02.008Z,6.57
2018-06-18T01:51:32.577Z,7.13
2018-06-18T01:54:03.333Z,6.43
2018-06-18T01:56:33.274Z,6.10
2018-06-18T01:59:03.390Z,6.57
2018-06-18T02:01:33.783Z,6.50
2018-06-18T02:04:04.268Z,6.03
2018-06-18T02:06:34.834Z,6.00
2018-06-18T02:09:09.307Z,6.37
2018-06-18T02:11:39.531Z,6.70
2018-06-18T02:14:10.930Z,6.83
2018-06-18T02:16:41.249Z,6.67
2018-06-18T02:19:11.903Z,6.90
2018-06-18T02:21:42.355Z,7.40
2018-06-18T02:24:13.217Z,6.27
2018-06-18T02:26:43.626Z,7.27
2018-06-18T02:29:19.092Z,7.50
2018-06-18T02:31:54.667Z,7.30
2018-06-18T02:34:30.438Z,8.60
2018-06-18T02:37:05.829Z,6.73
2018-06-18T02:39:40.865Z,6.57
2018-06-18T02:42:11.408Z,7.30
2018-06-18T02:44:42.383Z,7.23
2018-06-18T02:47:12.668Z,6.73
2018-06-18T02:49:43.063Z,6.90
2018-06-18T02:52:13.585Z,6.23
2018-06-18T02:54:43.828Z,6.20
2018-06-18T02:57:15.031Z,6.20
2018-06-18T02:59:45.841Z,7.00
2018-06-18T03:02:16.518Z,7.00
2018-06-18T03:04:47.076Z,6.40
2018-06-18T03:07:17.571Z,6.40
2018-06-18T03:09:48.019Z,7.20
2018-06-18T03:12:18.536Z,7.10
2018-06-18T03:14:50.610Z,6.77
2018-06-18T03:17:20.989Z,6.53
2018-06-18T03:19:56.695Z,6.40
2018-06-18T03:22:33.016Z,6.03
2018-06-18T03:25:08.931Z,6.33
2018-06-18T03:27:44.767Z,6.03
2018-06-18T03:30:15.095Z,5.57
2018-06-18T03:32:45.598Z,6.20
2018-06-18T03:35:16.042Z,6.27
2018-06-18T03:37:46.817Z,6.33
2018-06-18T03:40:17.327Z,6.00
2018-06-18T03:42:47.830Z,6.87
2018-06-18T03:45:26.243Z,6.20
2018-06-18T03:47:57.675Z,6.20
2018-06-18T03:50:28.791Z,6.93
2018-06-18T03:52:59.303Z,6.13
2018-06-18T03:55:32.742Z,7.37
2018-06-18T03:58:08.786Z,6.87
2018-06-18T04:01:54.359Z,6.97
2018-06-18T04:04:30.121Z,6.27
2018-06-18T04:07:06.038Z,6.10
2018-06-18T04:09:42.168Z,6.40
2018-06-18T04:12:13.147Z,6.23
2018-06-18T04:14:43.590Z,5.73
2018-06-18T04:17:14.525Z,5.90
2018-06-18T04:19:45.339Z,7.30
2018-06-18T04:22:15.877Z,6.40
2018-06-18T04:24:46.847Z,7.20
2018-06-18T04:27:17.507Z,6.37
2018-06-18T04:29:48.111Z,7.13
2018-06-18T04:32:19.263Z,6.23
2018-06-18T04:34:52.915Z,7.50
2018-06-18T04:37:23.297Z,6.90
2018-06-18T04:39:54.020Z,7.50
2018-06-18T04:42:30.127Z,8.20
2018-06-18T04:45:06.244Z,8.87
2018-06-18T04:47:41.831Z,6.57
2018-06-18T04:50:17.340Z,7.67
2018-06-18T04:52:48.193Z,7.13
2018-06-18T04:55:21.062Z,7.90
2018-06-18T04:57:51.840Z,7.53
2018-06-18T05:00:45.626Z,7.77
2018-06-18T05:03:16.037Z,7.43
2018-06-18T05:05:46.542Z,8.43
2018-06-18T05:08:34.223Z,8.30
2018-06-18T05:11:04.803Z,8.10
2018-06-18T05:13:35.538Z,8.83
2018-06-18T05:16:06.878Z,7.63
2018-06-18T05:18:37.562Z,8.10
2018-06-18T05:21:08.070Z,7.53
2018-06-18T05:23:39.538Z,7.67
2018-06-18T05:26:10.107Z,7.97
2018-06-18T05:28:40.754Z,7.90
2018-06-18T05:31:11.159Z,7.80
2018-06-18T05:33:41.717Z,7.37
2018-06-18T05:36:12.141Z,7.50
2018-06-18T05:38:43.152Z,7.03
2018-06-18T05:41:13.693Z,7.30
2018-06-18T05:43:44.096Z,7.37
2018-06-18T05:46:14.818Z,7.50
2018-06-18T05:48:46.589Z,7.70
2018-06-18T05:51:19.202Z,7.23
2018-06-18T05:53:49.718Z,7.33
2018-06-18T05:56:20.349Z,6.70
2018-06-18T05:58:50.952Z,7.90
2018-06-18T06:01:21.650Z,6.87
2018-06-18T06:03:51.975Z,7.10
2018-06-18T06:06:22.695Z,7.23
2018-06-18T06:08:53.115Z,7.03
2018-06-18T06:11:23.663Z,6.97
2018-06-18T06:13:54.433Z,7.00
2018-06-18T06:16:25.212Z,6.70
2018-06-18T06:18:56.343Z,6.13
2018-06-18T06:21:26.787Z,6.40
2018-06-18T06:23:57.383Z,6.23
2018-06-18T06:26:27.710Z,7.30
2018-06-18T06:29:00.410Z,6.83
2018-06-18T06:31:31.162Z,7.00
2018-06-18T06:34:02.255Z,6.70
2018-06-18T06:36:32.859Z,6.40
2018-06-18T06:39:03.639Z,7.10
2018-06-18T06:41:34.355Z,6.23
2018-06-18T06:44:04.709Z,6.80
2018-06-18T06:46:35.180Z,6.30
2018-06-18T06:49:05.979Z,7.43
2018-06-18T06:51:36.960Z,7.17
2018-06-18T06:54:07.927Z,8.20
2018-06-18T06:56:38.466Z,7.03
2018-06-18T06:59:09.102Z,6.73
2018-06-18T07:01:39.431Z,7.60
2018-06-18T07:04:10.558Z,7.00
2018-06-18T07:06:41.078Z,8.00
2018-06-18T07:09:12.626Z,7.30
2018-06-18T07:11:43.075Z,7.60
2018-06-18T07:14:13.523Z,8.13
2018-06-18T07:16:44.421Z,8.20
2018-06-18T07:19:15.192Z,7.80
2018-06-18T07:21:45.807Z,7.67
2018-06-18T07:24:16.330Z,7.80
2018-06-18T07:26:47.219Z,7.20
2018-06-18T07:29:17.829Z,7.90
2018-06-18T07:31:48.693Z,7.23
2018-06-18T07:34:19.497Z,8.30
2018-06-18T07:36:50.063Z,7.57
2018-06-18T07:39:20.690Z,7.70
2018-06-18T07:41:51.201Z,7.50
2018-06-18T07:44:21.471Z,6.73
2018-06-18T07:46:52.390Z,7.40
2018-06-18T07:49:22.950Z,7.50
2018-06-18T07:51:53.288Z,7.63
2018-06-18T07:54:23.845Z,8.13
2018-06-18T07:56:54.370Z,7.47
2018-06-18T07:59:25.084Z,8.07
2018-06-18T08:01:55.712Z,7.90
2018-06-18T08:04:27.730Z,7.80
2018-06-18T08:06:58.261Z,8.60
2018-06-18T08:09:28.679Z,9.57
2018-06-18T08:11:59.546Z,8.40
2018-06-18T08:14:29.911Z,7.10
2018-06-18T08:17:00.379Z,8.23
2018-06-18T08:19:31.006Z,8.20
2018-06-18T08:22:01.748Z,8.27
2018-06-18T08:24:32.178Z,8.77
2018-06-18T08:27:02.928Z,7.97
2018-06-18T08:29:33.407Z,8.20
2018-06-18T08:32:04.420Z,7.40
2018-06-18T08:34:35.030Z,6.70
2018-06-18T08:37:05.814Z,7.47
2018-06-18T08:39:36.614Z,8.30
2018-06-18T08:42:07.139Z,8.40
2018-06-18T08:44:37.665Z,7.30
2018-06-18T08:47:08.580Z,8.40
2018-06-18T08:49:44.756Z,8.17
2018-06-18T08:54:23.754Z,8.60
2018-06-18T08:56:59.355Z,7.70
2018-06-18T08:59:36.007Z,7.10
2018-06-18T09:02:06.321Z,7.80
2018-06-18T09:04:42.642Z,7.23
2018-06-18T09:07:17.031Z,6.73
2018-06-18T09:09:48.223Z,8.10
2018-06-18T09:12:18.599Z,6.50
2018-06-18T09:14:49.316Z,6.47
2018-06-18T09:17:20.189Z,6.17
2018-06-18T09:19:50.547Z,6.63
2018-06-18T09:22:20.910Z,6.60
2018-06-18T09:24:51.300Z,7.20
2018-06-18T09:27:21.950Z,7.10
2018-06-18T09:29:57.407Z,7.80
2018-06-18T09:32:27.909Z,7.77
2018-06-18T09:34:58.950Z,8.10
2018-06-18T09:37:29.596Z,7.20
2018-06-18T09:40:00.067Z,7.27
2018-06-18T09:42:30.597Z,8.97
2018-06-18T09:45:00.816Z,7.93
2018-06-18T09:47:31.563Z,9.00
2018-06-18T09:50:07.637Z,9.07
2018-06-18T09:52:43.583Z,8.20
2018-06-18T09:55:19.482Z,7.83
2018-06-18T09:57:55.970Z,8.47
2018-06-18T10:00:42.525Z,8.10
2018-06-18T10:03:12.869Z,7.30
2018-06-18T10:05:43.576Z,7.30
2018-06-18T10:08:14.227Z,8.57
2018-06-18T10:10:45.117Z,8.27
2018-06-18T10:13:15.045Z,8.97
2018-06-18T10:15:45.728Z,9.13
2018-06-18T10:18:16.435Z,9.23
2018-06-18T10:20:48.258Z,8.30
2018-06-18T10:23:19.339Z,8.93
2018-06-18T10:25:49.986Z,8.83
2018-06-18T10:28:21.109Z,8.90
2018-06-18T10:30:51.932Z,8.80
2018-06-18T10:33:27.478Z,8.80
2018-06-18T10:36:04.004Z,9.10
2018-06-18T10:38:40.350Z,8.47
2018-06-18T10:41:16.096Z,8.30
2018-06-18T10:43:46.883Z,9.43
2018-06-18T10:46:17.517Z,9.60
2018-06-18T10:48:48.243Z,8.50
2018-06-18T10:51:18.610Z,9.10
2018-06-18T10:53:49.178Z,9.70
2018-06-18T10:56:20.051Z,9.13
2018-06-18T10:58:50.910Z,9.30
2018-06-18T11:01:26.559Z,9.00
2018-06-18T11:03:57.045Z,9.23
2018-06-18T11:06:34.167Z,8.73
2018-06-18T11:09:07.160Z,8.23
2018-06-18T11:11:38.156Z,8.77
2018-06-18T11:14:08.945Z,7.77
2018-06-18T11:16:39.597Z,8.20
2018-06-18T11:19:16.921Z,8.40
2018-06-18T11:21:52.475Z,8.00
2018-06-18T11:24:27.996Z,8.73
2018-06-18T11:26:59.345Z,9.00
2018-06-18T11:29:29.634Z,8.70
2018-06-18T11:32:00.178Z,9.17
2018-06-18T11:34:30.439Z,9.97
2018-06-18T11:37:00.970Z,9.50
2018-06-18T11:39:31.403Z,9.60
2018-06-18T11:42:02.996Z,10.03
2018-06-18T11:44:33.627Z,11.03
2018-06-18T11:47:04.355Z,10.20
2018-06-18T11:49:35.003Z,10.70
2018-06-18T11:52:06.615Z,11.13
2018-06-18T11:54:37.311Z,9.77
2018-06-18T11:57:08.041Z,10.10
2018-06-18T11:59:43.383Z,8.80
2018-06-18T12:02:20.058Z,7.93
2018-06-18T12:04:56.488Z,8.60
2018-06-18T12:07:32.064Z,8.87
2018-06-18T12:10:02.730Z,8.10
2018-06-18T12:12:33.467Z,8.63
2018-06-18T12:15:03.919Z,8.23
2018-06-18T12:17:34.511Z,8.17
2018-06-18T12:20:04.561Z,11.90
2018-06-18T12:22:41.827Z,8.63
2018-06-18T12:25:14.147Z,9.33
2018-06-18T12:27:44.562Z,8.37
2018-06-18T12:30:14.979Z,8.33
2018-06-18T12:32:45.490Z,7.90
2018-06-18T12:35:16.220Z,8.17
2018-06-18T12:37:47.482Z,7.47
2018-06-18T12:40:18.178Z,8.37
2018-06-18T12:42:49.194Z,8.60
2018-06-18T12:45:25.901Z,7.80
2018-06-18T12:48:02.424Z,7.33
2018-06-18T12:50:39.878Z,7.73
2018-06-18T12:53:16.864Z,7.50
2018-06-18T12:55:52.236Z,6.70
2018-06-18T12:58:22.862Z,6.17
2018-06-18T13:00:53.613Z,5.50
2018-06-18T13:03:24.351Z,6.00
2018-06-18T13:05:55.166Z,4.60
2018-06-18T13:08:26.206Z,5.03
2018-06-18T13:10:56.333Z,4.10
2018-06-18T13:13:26.866Z,4.50
2018-06-18T13:15:56.879Z,4.20
2018-06-18T13:18:27.746Z,3.53
2018-06-18T13:20:58.518Z,3.90
2018-06-18T13:23:31.819Z,3.90
2018-06-18T13:26:02.347Z,3.77
2018-06-18T13:28:32.921Z,3.70
2018-06-18T13:31:03.938Z,3.07
2018-06-18T13:33:34.508Z,4.30
2018-06-18T13:36:06.427Z,3.80
2018-06-18T13:38:42.078Z,2.97
2018-06-18T13:41:18.076Z,3.70
2018-06-18T13:43:54.235Z,3.77
2018-06-18T13:46:30.118Z,4.10
2018-06-18T13:49:00.500Z,3.30
2018-06-18T13:51:30.635Z,3.20
2018-06-18T13:54:01.233Z,3.20
2018-06-18T13:56:32.030Z,3.33
2018-06-18T13:59:02.639Z,3.27
2018-06-18T14:01:33.828Z,3.10
2018-06-18T14:04:04.222Z,3.40
2018-06-18T14:06:35.030Z,2.93
2018-06-18T14:09:07.785Z,2.83
2018-06-18T14:11:38.397Z,3.00
2018-06-18T14:14:09.226Z,2.70
2018-06-18T14:16:39.597Z,3.07
2018-06-18T14:19:15.330Z,3.83
2018-06-18T14:21:55.769Z,3.80
2018-06-18T14:24:26.350Z,3.40
2018-06-18T14:26:56.724Z,4.03
2018-06-18T14:29:32.607Z,5.10
2018-06-18T14:32:03.282Z,5.30
2018-06-18T14:34:39.821Z,5.43
2018-06-18T14:37:16.948Z,6.70
2018-06-18T14:39:56.889Z,6.80
2018-06-18T14:42:27.802Z,6.03
2018-06-18T14:44:58.159Z,7.17
2018-06-18T14:47:28.854Z,5.93
2018-06-18T14:50:00.041Z,6.20
2018-06-18T14:52:30.620Z,6.37
2018-06-18T14:55:01.921Z,7.10
2018-06-18T14:57:32.354Z,7.17
2018-06-18T15:00:08.432Z,7.10
2018-06-18T15:02:38.993Z,7.60
2018-06-18T15:05:09.938Z,7.53
2018-06-18T15:07:40.119Z,8.50
2018-06-18T15:10:10.871Z,8.00
2018-06-18T15:12:52.353Z,8.90
2018-06-18T15:15:29.493Z,8.40
2018-06-18T15:18:00.051Z,8.80
2018-06-18T15:20:30.496Z,10.30
2018-06-18T15:23:03.613Z,10.03
2018-06-18T15:25:39.114Z,8.80
2018-06-18T15:28:09.715Z,9.33
2018-06-18T15:30:40.367Z,10.00
2018-06-18T15:33:11.190Z,9.90
2018-06-18T15:35:41.778Z,10.10
2018-06-18T15:38:12.353Z,9.20
2018-06-18T15:40:42.741Z,8.43
2018-06-18T15:43:13.256Z,8.90
2018-06-18T15:45:44.259Z,8.50
2018-06-18T15:48:15.146Z,9.70
2018-06-18T15:50:45.708Z,9.33
2018-06-18T15:53:16.624Z,8.63
2018-06-18T15:55:47.211Z,8.67
2018-06-18T15:58:19.306Z,8.53
2018-06-18T16:00:49.961Z,9.43
2018-06-18T16:03:34.446Z,8.50
2018-06-18T16:06:18.152Z,8.13
2018-06-18T16:08:50.962Z,9.93
2018-06-18T16:11:21.891Z,8.80
2018-06-18T16:13:51.895Z,9.43
2018-06-18T16:16:22.530Z,10.10
2018-06-18T16:18:52.987Z,8.60
2018-06-18T16:21:23.711Z,9.80
2018-06-18T16:23:54.016Z,9.47
2018-06-18T16:26:24.962Z,9.03
2018-06-18T16:28:55.815Z,9.13
2018-06-18T16:31:26.467Z,9.70
2018-06-18T16:33:57.210Z,8.40
2018-06-18T16:36:27.858Z,7.97
2018-06-18T16:38:58.894Z,9.00
2018-06-18T16:41:29.739Z,8.77
2018-06-18T16:44:00.398Z,8.93
2018-06-18T16:46:31.138Z,9.67
2018-06-18T16:49:01.622Z,8.77
2018-06-18T16:51:32.398Z,9.50
2018-06-18T16:54:02.461Z,9.17
2018-06-18T16:56:33.374Z,8.93
2018-06-18T16:59:04.090Z,9.03
2018-06-18T17:01:34.790Z,9.80
2018-06-18T17:04:05.837Z,7.80
2018-06-18T17:06:37.100Z,9.40
2018-06-18T17:09:09.586Z,8.90
2018-06-18T17:11:40.356Z,9.60
2018-06-18T17:14:11.142Z,9.33
2018-06-18T17:16:41.509Z,8.20
2018-06-18T17:19:12.172Z,9.00
2018-06-18T17:21:42.707Z,8.37
2018-06-18T17:24:23.494Z,7.67
2018-06-18T17:26:58.782Z,7.90
2018-06-18T17:29:29.650Z,8.33
2018-06-18T17:32:00.093Z,7.27
2018-06-18T17:34:30.660Z,7.37
2018-06-18T17:37:01.023Z,7.30
2018-06-18T17:39:32.799Z,8.20
2018-06-18T17:42:03.330Z,8.10
2018-06-18T17:44:34.114Z,7.50
2018-06-18T17:47:04.706Z,7.00
2018-06-18T17:49:35.406Z,6.40
2018-06-18T17:52:06.112Z,8.13
2018-06-18T17:54:37.195Z,8.10
2018-06-18T17:57:08.210Z,7.83
2018-06-18T17:59:38.843Z,8.80
2018-06-18T18:02:09.392Z,7.63
2018-06-18T18:04:42.447Z,7.30
2018-06-18T18:07:12.930Z,7.70
2018-06-18T18:09:44.146Z,7.53
2018-06-18T18:12:14.734Z,7.40
2018-06-18T18:14:45.676Z,6.70
2018-06-18T18:17:16.252Z,7.27
2018-06-18T18:19:47.518Z,7.83
2018-06-18T18:22:18.421Z,8.27
2018-06-18T18:24:49.920Z,7.47
2018-06-18T18:27:21.060Z,7.73
2018-06-18T18:29:51.542Z,8.00
2018-06-18T18:32:22.083Z,7.03
2018-06-18T18:34:53.782Z,7.90
2018-06-18T18:37:24.327Z,8.00
2018-06-18T18:39:55.345Z,6.50
2018-06-18T18:42:25.972Z,7.27
2018-06-18T18:44:56.634Z,8.07
2018-06-18T18:47:27.338Z,8.10
2018-06-18T18:49:58.234Z,7.50
2018-06-18T18:52:29.278Z,7.87
2018-06-18T18:55:36.852Z,7.60
2018-06-18T18:58:19.882Z,7.80
2018-06-18T19:00:51.117Z,7.77
2018-06-18T19:03:29.642Z,7.77
2018-06-18T19:06:00.428Z,7.60
2018-06-18T19:08:33.736Z,6.73
2018-06-18T19:11:05.223Z,7.40
2018-06-18T19:13:37.226Z,8.07
2018-06-18T19:16:09.057Z,8.17
2018-06-18T19:18:41.692Z,7.10
2018-06-18T19:21:12.478Z,7.80
2018-06-18T19:23:43.138Z,7.27
2018-06-18T19:26:13.588Z,7.20
2018-06-18T19:28:47.035Z,7.90
2018-06-18T19:31:21.273Z,7.90
2018-06-18T19:34:27.326Z,8.50
2018-06-18T19:36:58.579Z,9.10
2018-06-18T19:39:37.885Z,10.80
2018-06-18T19:42:08.925Z,10.43
2018-06-18T19:44:39.525Z,10.47
2018-06-18T19:47:29.754Z,10.33
2018-06-18T19:50:00.374Z,9.97
2018-06-18T19:52:31.234Z,11.70
2018-06-18T19:55:04.619Z,10.90
2018-06-18T19:57:35.266Z,11.30
2018-06-18T20:00:06.462Z,11.70
2018-06-18T20:02:37.164Z,12.20
2018-06-18T20:05:12.835Z,11.37
2018-06-18T20:08:07.470Z,10.37
2018-06-18T20:10:38.278Z,11.20
2018-06-18T20:13:09.210Z,10.80
2018-06-18T20:15:39.664Z,11.47
2018-06-18T20:18:10.333Z,10.40
2018-06-18T20:20:40.970Z,10.40
2018-06-18T20:23:15.452Z,11.00
2018-06-18T20:26:07.594Z,9.60
2018-06-18T20:28:45.579Z,9.70
2018-06-18T20:31:16.008Z,9.27
2018-06-18T20:33:51.157Z,9.80
2018-06-18T20:36:22.638Z,9.40
2018-06-18T20:38:53.472Z,9.57
2018-06-18T20:41:24.322Z,9.37
2018-06-18T20:44:07.770Z,10.10
2018-06-18T20:46:39.113Z,10.10
2018-06-18T20:49:11.247Z,10.30
2018-06-18T20:51:42.487Z,10.23
2018-06-18T20:54:13.395Z,10.00
2018-06-18T20:56:44.118Z,9.73
2018-06-18T20:59:15.161Z,8.47
2018-06-18T21:01:45.789Z,8.70
2018-06-18T21:04:16.478Z,9.10
2018-06-18T21:06:47.462Z,9.00
2018-06-18T21:09:17.905Z,9.37
2018-06-18T21:11:48.506Z,9.17
2018-06-18T21:14:19.183Z,7.80
2018-06-18T21:16:50.035Z,7.87
2018-06-18T21:19:20.719Z,9.60
2018-06-18T21:21:51.148Z,9.37
2018-06-18T21:24:21.978Z,8.97
2018-06-18T21:26:52.701Z,9.80
2018-06-18T21:29:23.169Z,9.10
2018-06-18T21:31:54.310Z,9.70
2018-06-18T21:34:25.187Z,8.80
2018-06-18T21:36:55.493Z,9.80
2018-06-18T21:39:25.984Z,10.03
2018-06-18T21:41:58.022Z,9.53
2018-06-18T21:44:33.113Z,9.90
2018-06-18T21:47:03.970Z,11.23
2018-06-18T21:49:35.786Z,10.17
2018-06-18T21:52:06.821Z,9.80
2018-06-18T21:54:37.852Z,10.07
2018-06-18T21:57:08.323Z,9.73
2018-06-18T21:59:39.283Z,10.20
2018-06-18T22:02:09.869Z,9.83
2018-06-18T22:04:40.546Z,9.20
2018-06-18T22:07:11.163Z,10.30
2018-06-18T22:09:41.770Z,10.63
2018-06-18T22:12:12.570Z,10.03
2018-06-18T22:14:43.622Z,9.57
2018-06-18T22:17:14.325Z,9.70
2018-06-18T22:19:45.198Z,10.30
2018-06-18T22:22:15.750Z,9.00
2018-06-18T22:24:47.246Z,8.97
2018-06-18T22:27:17.899Z,9.67
2018-06-18T22:29:48.806Z,9.70
2018-06-18T22:32:19.659Z,11.27
2018-06-18T22:34:50.798Z,10.60
2018-06-18T22:37:21.569Z,11.63
2018-06-18T22:39:52.489Z,10.03
2018-06-18T22:42:23.537Z,10.47
2018-06-18T22:44:54.351Z,10.30
2018-06-18T22:47:24.875Z,10.80
2018-06-18T22:49:55.750Z,11.27
2018-06-18T22:52:26.410Z,10.57
2018-06-18T22:54:57.258Z,11.10
2018-06-18T22:57:27.726Z,10.00
2018-06-18T22:59:58.439Z,12.57
2018-06-18T23:02:31.268Z,11.33
2018-06-18T23:05:01.879Z,11.77
2018-06-18T23:07:33.224Z,11.83
2018-06-18T23:10:03.947Z,10.47
2018-06-18T23:12:38.783Z,10.77
2018-06-18T23:15:10.390Z,10.23
2018-06-18T23:17:41.620Z,10.37
2018-06-18T23:20:12.308Z,10.40
2018-06-18T23:22:43.622Z,12.07
2018-06-18T23:25:14.130Z,11.30
2018-06-18T23:27:44.683Z,10.87
2018-06-18T23:30:15.034Z,11.87
2018-06-18T23:32:45.902Z,9.90
2018-06-18T23:35:16.350Z,12.80
2018-06-18T23:37:47.395Z,10.30
2018-06-18T23:40:17.881Z,11.40
2018-06-18T23:42:48.326Z,12.00
2018-06-18T23:45:19.690Z,10.93
2018-06-18T23:47:50.107Z,12.97
2018-06-18T23:50:20.711Z,12.30
2018-06-18T23:52:51.417Z,11.60
2018-06-18T23:55:22.205Z,11.60
2018-06-18T23:57:52.513Z,11.40
